Time;durP1;ratioP1;P1;durP2;ratioP2;P2;SDS_P1;SDS_P2;PMS_P1;PMS_P2;Temp;Humidity;BMP_temperature;BMP_pressure;BME280_temperature;BME280_humidity;BME280_pressure;Samples;Min_cycle;Max_cycle;Signal;HPM_P1;HPM_P2
2023/12/30 00:00:29;;;;;;;10.77;1.67;;;8.40;99.90;;;;;;4984035;28;37208;-84
2023/12/30 00:02:55;;;;;;;14.30;1.90;;;8.40;99.90;;;;;;4987891;28;38876;-83
2023/12/30 00:05:23;;;;;;;12.60;1.40;;;8.30;99.90;;;;;;4998680;28;35661;-85
2023/12/30 00:07:50;;;;;;;13.30;2.03;;;8.40;99.90;;;;;;4988489;28;38879;-84
2023/12/30 00:10:16;;;;;;;10.80;1.70;;;8.40;99.90;;;;;;4986714;28;37878;-85
2023/12/30 00:12:42;;;;;;;14.37;2.30;;;8.40;99.90;;;;;;4988750;28;37208;-80
2023/12/30 00:15:08;;;;;;;12.57;1.57;;;8.40;99.90;;;;;;4988155;28;36317;-79
2023/12/30 00:17:34;;;;;;;12.30;1.80;;;8.40;99.90;;;;;;4990900;28;37781;-83
2023/12/30 00:20:00;;;;;;;11.57;1.83;;;8.40;99.90;;;;;;4983298;28;37377;-86
2023/12/30 00:22:26;;;;;;;8.77;1.50;;;8.40;99.90;;;;;;4984092;28;37025;-82
2023/12/30 00:24:52;;;;;;;11.20;1.83;;;8.40;99.90;;;;;;4974962;28;35972;-82
2023/12/30 00:27:18;;;;;;;8.47;1.57;;;8.40;99.90;;;;;;4980534;28;39417;-81
2023/12/30 00:29:45;;;;;;;11.77;2.20;;;8.40;99.90;;;;;;4977716;28;37239;-82
2023/12/30 00:32:11;;;;;;;12.40;2.13;;;8.40;99.90;;;;;;4982937;28;38011;-83
2023/12/30 00:34:37;;;;;;;13.70;2.27;;;8.40;99.90;;;;;;4976579;28;36054;-82
2023/12/30 00:37:03;;;;;;;12.07;2.27;;;8.40;99.90;;;;;;4972540;28;37759;-75
2023/12/30 00:39:29;;;;;;;9.67;1.80;;;8.40;99.90;;;;;;4992417;28;37899;-80
2023/12/30 00:41:55;;;;;;;13.90;2.10;;;8.30;99.90;;;;;;4983190;28;38754;-82
2023/12/30 00:44:21;;;;;;;13.00;1.93;;;8.30;99.90;;;;;;4984558;28;37181;-80
2023/12/30 00:46:48;;;;;;;16.07;1.87;;;8.30;99.90;;;;;;4979709;28;37832;-85
2023/12/30 00:49:15;;;;;;;13.43;1.80;;;8.30;99.90;;;;;;4978167;28;37951;-86
2023/12/30 00:51:42;;;;;;;12.60;2.73;;;8.20;99.90;;;;;;4982092;28;20047;-81
2023/12/30 00:54:08;;;;;;;11.43;1.57;;;8.30;99.90;;;;;;4987107;28;36773;-85
2023/12/30 00:56:34;;;;;;;13.43;1.97;;;8.30;99.90;;;;;;4987367;28;37633;-84
2023/12/30 00:59:00;;;;;;;14.57;2.40;;;8.30;99.90;;;;;;4982254;28;37211;-84
2023/12/30 01:01:26;;;;;;;11.33;1.70;;;8.30;99.90;;;;;;4982107;28;38435;-82
2023/12/30 01:03:53;;;;;;;10.97;1.80;;;8.30;99.90;;;;;;4985856;28;34933;-84
2023/12/30 01:06:19;;;;;;;12.50;2.00;;;8.20;99.90;;;;;;4982169;28;37590;-85
2023/12/30 01:08:45;;;;;;;9.87;1.77;;;8.30;99.90;;;;;;4986463;28;36950;-82
2023/12/30 01:11:12;;;;;;;14.90;1.70;;;8.30;99.90;;;;;;4987272;28;37001;-81
2023/12/30 01:13:38;;;;;;;15.77;2.40;;;8.20;99.90;;;;;;4982498;28;35952;-86
2023/12/30 01:16:05;;;;;;;19.33;2.20;;;8.20;99.90;;;;;;4984370;28;37838;-84
2023/12/30 01:18:34;;;;;;;12.87;2.00;;;8.10;99.90;;;;;;4991109;28;38833;-87
2023/12/30 01:21:02;;;;;;;9.63;1.67;;;8.10;99.90;;;;;;4972193;28;38710;-85
2023/12/30 01:23:28;;;;;;;12.13;1.87;;;8.10;99.90;;;;;;4984411;28;47093;-86
2023/12/30 01:25:54;;;;;;;15.30;1.67;;;8.10;99.90;;;;;;4985104;28;37777;-86
2023/12/30 01:28:21;;;;;;;11.40;1.80;;;8.20;99.90;;;;;;4990052;28;39306;-84
2023/12/30 01:30:47;;;;;;;7.27;1.10;;;8.20;99.90;;;;;;4985259;28;39126;-81
2023/12/30 01:33:13;;;;;;;12.60;1.87;;;8.20;99.90;;;;;;4987193;28;36091;-83
2023/12/30 01:35:39;;;;;;;10.53;1.50;;;8.20;99.90;;;;;;4979225;28;38487;-81
2023/12/30 01:38:06;;;;;;;11.73;2.70;;;8.20;99.90;;;;;;4976883;28;36294;-82
2023/12/30 01:40:32;;;;;;;8.73;0.93;;;8.20;99.90;;;;;;4985725;28;38390;-81
2023/12/30 01:43:02;;;;;;;10.57;1.50;;;8.20;99.90;;;;;;4986098;28;35993;-84
2023/12/30 01:45:28;;;;;;;12.27;3.20;;;8.20;99.90;;;;;;4984506;28;47617;-82
2023/12/30 01:47:55;;;;;;;9.03;2.10;;;8.10;99.90;;;;;;4984008;28;37502;-80
2023/12/30 01:50:22;;;;;;;9.83;1.80;;;8.10;99.90;;;;;;4973882;28;38002;-82
2023/12/30 01:52:48;;;;;;;9.20;1.57;;;8.10;99.90;;;;;;4979994;28;37446;-82
2023/12/30 01:55:15;;;;;;;11.30;1.97;;;8.10;99.90;;;;;;4977134;28;37699;-84
2023/12/30 01:57:44;;;;;;;7.07;1.43;;;8.10;99.90;;;;;;4985475;28;37895;-81
2023/12/30 02:00:17;;;;;;;10.90;1.70;;;8.20;99.90;;;;;;4982927;28;37176;-79
2023/12/30 02:02:44;;;;;;;4.83;1.47;;;8.20;99.90;;;;;;5496549;23;38789;-78
2023/12/30 02:05:10;;;;;;;15.90;2.30;;;8.20;99.90;;;;;;4996014;28;39548;-77
2023/12/30 02:07:37;;;;;;;11.50;1.97;;;8.20;99.90;;;;;;4999285;28;38029;-78
2023/12/30 02:10:03;;;;;;;9.57;1.67;;;8.10;99.90;;;;;;5004093;28;38372;-77
2023/12/30 02:12:30;;;;;;;9.60;1.63;;;8.20;99.90;;;;;;5001565;28;47189;-78
2023/12/30 02:15:19;;;;;;;16.03;1.70;;;8.20;99.90;;;;;;5000989;28;39206;-77
2023/12/30 02:17:47;;;;;;;14.70;2.30;;;8.10;99.90;;;;;;5017839;28;47203;-78
2023/12/30 02:20:13;;;;;;;10.17;1.53;;;8.20;99.90;;;;;;4997396;28;38503;-78
2023/12/30 02:22:46;;;;;;;9.27;1.80;;;8.20;99.90;;;;;;5000268;28;38336;-79
2023/12/30 02:25:13;;;;;;;10.80;1.90;;;8.20;99.90;;;;;;4997200;28;38658;-78
2023/12/30 02:27:42;;;;;;;14.23;1.60;;;8.20;99.90;;;;;;5000594;28;39061;-78
2023/12/30 02:30:09;;;;;;;10.40;1.37;;;8.20;99.90;;;;;;4991043;28;38093;-77
2023/12/30 02:32:35;;;;;;;8.60;1.60;;;8.20;99.90;;;;;;5004384;28;37541;-78
2023/12/30 02:35:01;;;;;;;15.47;1.70;;;8.20;99.90;;;;;;5001838;28;39034;-78
2023/12/30 02:37:29;;;;;;;9.90;1.50;;;8.30;99.90;;;;;;4998706;28;38397;-77
2023/12/30 02:39:55;;;;;;;9.70;1.47;;;8.30;99.90;;;;;;5012161;28;36885;-78
2023/12/30 02:42:21;;;;;;;12.83;1.90;;;8.30;99.90;;;;;;5000554;28;35616;-78
2023/12/30 02:44:50;;;;;;;6.20;1.20;;;8.30;99.90;;;;;;4990480;28;39320;-78
2023/12/30 02:47:16;;;;;;;10.23;1.20;;;8.20;99.90;;;;;;4999171;28;39390;-78
2023/12/30 02:49:44;;;;;;;12.03;1.90;;;8.10;99.90;;;;;;5017070;28;39027;-77
2023/12/30 02:52:11;;;;;;;12.30;1.90;;;8.00;99.90;;;;;;4991821;28;38775;-79
2023/12/30 02:54:37;;;;;;;11.93;2.00;;;7.90;99.90;;;;;;4998865;28;41049;-78
2023/12/30 02:57:04;;;;;;;13.23;1.73;;;7.80;99.90;;;;;;4985760;28;38467;-76
2023/12/30 02:59:30;;;;;;;26.63;2.67;;;7.90;99.90;;;;;;4992509;28;39368;-78
2023/12/30 03:01:57;;;;;;;17.57;1.70;;;7.80;99.90;;;;;;4999603;28;35828;-79
2023/12/30 03:04:24;;;;;;;12.60;2.47;;;7.80;99.90;;;;;;4999573;28;38807;-76
2023/12/30 03:06:50;;;;;;;8.70;1.90;;;7.80;99.90;;;;;;4991195;28;39890;-78
2023/12/30 03:09:16;;;;;;;10.90;2.00;;;7.70;99.90;;;;;;4999613;28;36734;-79
2023/12/30 03:11:44;;;;;;;12.17;2.17;;;7.70;99.90;;;;;;4991376;28;38259;-78
2023/12/30 03:14:10;;;;;;;13.73;2.10;;;7.70;99.90;;;;;;4996955;28;37869;-78
2023/12/30 03:16:36;;;;;;;15.27;2.40;;;7.70;99.90;;;;;;4981709;28;39564;-79
2023/12/30 03:19:02;;;;;;;12.20;2.30;;;7.70;99.90;;;;;;4997257;28;38745;-78
2023/12/30 03:21:29;;;;;;;13.40;2.07;;;7.60;99.90;;;;;;5018187;28;36096;-78
2023/12/30 03:23:55;;;;;;;12.87;2.23;;;7.50;99.90;;;;;;4999554;28;37696;-77
2023/12/30 03:26:21;;;;;;;15.57;1.97;;;7.60;99.90;;;;;;4999546;28;37355;-78
2023/12/30 03:28:47;;;;;;;14.87;2.40;;;7.50;99.90;;;;;;4994258;28;37073;-78
2023/12/30 03:31:41;;;;;;;18.43;2.40;;;7.60;99.90;;;;;;5002101;28;38216;-78
2023/12/30 03:34:07;;;;;;;12.43;1.70;;;7.60;99.90;;;;;;4993538;28;39209;-77
2023/12/30 03:36:35;;;;;;;16.27;1.97;;;7.60;99.90;;;;;;5001471;28;37103;-77
2023/12/30 03:39:04;;;;;;;12.37;1.63;;;7.50;99.90;;;;;;5004788;28;38628;-78
2023/12/30 03:41:30;;;;;;;23.10;2.53;;;7.50;99.90;;;;;;5001394;28;37322;-78
2023/12/30 03:43:56;;;;;;;14.57;1.63;;;7.50;99.90;;;;;;5005377;28;39953;-77
2023/12/30 03:46:22;;;;;;;26.53;3.23;;;7.50;99.90;;;;;;4992379;28;38882;-78
2023/12/30 03:48:48;;;;;;;18.53;2.30;;;7.40;99.90;;;;;;5004135;28;37961;-78
2023/12/30 03:51:15;;;;;;;10.17;1.83;;;7.40;99.90;;;;;;5000413;28;37963;-80
2023/12/30 03:53:41;;;;;;;14.30;1.90;;;7.50;99.90;;;;;;5003598;28;39293;-78
2023/12/30 03:56:07;;;;;;;20.07;2.27;;;7.50;99.90;;;;;;5009856;28;37665;-78
2023/12/30 03:58:37;;;;;;;17.37;2.07;;;7.60;99.90;;;;;;4985234;28;38499;-77
2023/12/30 04:01:04;;;;;;;18.30;2.30;;;7.70;99.90;;;;;;4995975;28;38556;-77
2023/12/30 04:03:30;;;;;;;13.40;2.00;;;7.70;99.90;;;;;;4990274;28;39765;-79
2023/12/30 04:05:56;;;;;;;9.00;1.97;;;7.80;99.90;;;;;;4991947;28;39077;-77
2023/12/30 04:08:22;;;;;;;11.57;1.80;;;7.80;99.90;;;;;;5003247;28;38847;-77
2023/12/30 04:10:48;;;;;;;11.17;1.70;;;7.80;99.90;;;;;;5001433;28;37365;-78
2023/12/30 04:13:15;;;;;;;16.00;2.60;;;7.80;99.90;;;;;;5002941;28;40494;-77
2023/12/30 04:15:41;;;;;;;9.93;2.00;;;7.70;99.90;;;;;;5001060;28;37151;-78
2023/12/30 04:18:07;;;;;;;7.50;1.67;;;7.70;99.90;;;;;;5007180;28;38570;-77
2023/12/30 04:20:33;;;;;;;15.33;2.37;;;7.70;99.90;;;;;;5003961;28;38753;-77
2023/12/30 04:23:00;;;;;;;13.03;1.70;;;7.80;99.90;;;;;;5002967;28;38635;-78
2023/12/30 04:25:26;;;;;;;16.57;2.57;;;7.80;99.90;;;;;;4998042;28;38380;-77
2023/12/30 04:27:52;;;;;;;11.27;1.70;;;7.90;99.90;;;;;;5001180;28;36610;-78
2023/12/30 04:30:18;;;;;;;12.80;1.80;;;7.90;99.90;;;;;;4999173;28;38163;-78
2023/12/30 04:32:44;;;;;;;12.80;2.33;;;8.00;99.90;;;;;;5001347;28;39719;-78
2023/12/30 04:35:10;;;;;;;14.63;1.57;;;8.10;99.90;;;;;;5001158;28;39160;-77
2023/12/30 04:37:37;;;;;;;13.07;1.83;;;8.30;99.90;;;;;;5000607;28;39430;-78
2023/12/30 04:40:03;;;;;;;7.20;1.60;;;8.40;99.90;;;;;;5017604;28;37018;-77
2023/12/30 04:42:29;;;;;;;10.93;1.50;;;8.40;99.90;;;;;;5004396;28;40063;-79
2023/12/30 04:44:55;;;;;;;10.73;1.83;;;8.40;99.90;;;;;;5000895;28;39567;-78
2023/12/30 04:47:22;;;;;;;14.47;1.73;;;8.40;99.90;;;;;;5007282;28;38989;-79
2023/12/30 04:49:48;;;;;;;9.70;1.33;;;8.40;99.90;;;;;;5005346;28;38161;-78
2023/12/30 04:52:14;;;;;;;15.13;2.40;;;8.20;99.90;;;;;;5002072;28;38945;-79
2023/12/30 04:54:42;;;;;;;10.37;1.23;;;8.20;99.90;;;;;;5004959;28;38589;-78
2023/12/30 04:57:08;;;;;;;12.63;1.80;;;8.20;99.90;;;;;;5004713;28;39067;-77
2023/12/30 04:59:35;;;;;;;8.30;1.53;;;8.20;99.90;;;;;;4996655;28;37809;-77
2023/12/30 05:02:01;;;;;;;12.63;1.90;;;8.20;99.90;;;;;;5002450;28;38019;-77
2023/12/30 05:04:28;;;;;;;10.20;2.67;;;8.30;99.90;;;;;;5002670;28;47555;-77
2023/12/30 05:06:54;;;;;;;9.33;1.70;;;8.20;99.90;;;;;;5003414;28;39542;-78
2023/12/30 05:09:20;;;;;;;17.53;1.60;;;8.20;99.90;;;;;;4988672;28;35984;-78
2023/12/30 05:11:48;;;;;;;11.80;2.00;;;8.20;99.90;;;;;;5005895;28;38597;-78
2023/12/30 05:14:15;;;;;;;15.53;1.70;;;8.20;99.90;;;;;;5001015;28;38737;-79
2023/12/30 05:16:45;;;;;;;18.13;2.73;;;8.20;99.90;;;;;;5010138;28;36963;-78
2023/12/30 05:19:12;;;;;;;9.20;1.60;;;8.10;99.90;;;;;;5006076;28;37207;-79
2023/12/30 05:21:38;;;;;;;13.07;1.93;;;8.00;99.90;;;;;;5004049;28;37591;-78
2023/12/30 05:24:06;;;;;;;11.47;1.30;;;7.90;99.90;;;;;;5019638;28;39825;-77
2023/12/30 05:26:32;;;;;;;9.47;1.83;;;7.90;99.90;;;;;;5001909;28;37124;-78
2023/12/30 05:28:58;;;;;;;12.83;2.10;;;7.90;99.90;;;;;;5000398;28;36876;-77
2023/12/30 05:31:25;;;;;;;12.33;1.67;;;7.80;99.90;;;;;;5004006;28;39103;-78
2023/12/30 05:33:52;;;;;;;13.33;2.00;;;7.80;99.90;;;;;;5003284;28;37214;-78
2023/12/30 05:36:18;;;;;;;13.93;1.83;;;7.80;99.90;;;;;;5001696;28;38250;-78
2023/12/30 05:38:45;;;;;;;10.13;1.90;;;7.80;99.90;;;;;;5006244;28;36312;-77
2023/12/30 05:41:12;;;;;;;12.40;1.90;;;7.80;99.90;;;;;;5006783;28;39341;-78
2023/12/30 05:43:40;;;;;;;12.47;2.13;;;7.80;99.90;;;;;;5006206;28;39400;-78
2023/12/30 05:46:07;;;;;;;13.57;1.73;;;7.70;99.90;;;;;;5003414;28;37193;-78
2023/12/30 05:48:33;;;;;;;14.03;1.77;;;7.80;99.90;;;;;;5021162;28;37318;-79
2023/12/30 05:51:00;;;;;;;14.03;2.43;;;7.70;99.90;;;;;;5005645;28;38692;-78
2023/12/30 05:53:28;;;;;;;13.07;1.83;;;7.70;99.90;;;;;;5010825;28;48168;-78
2023/12/30 05:55:54;;;;;;;14.37;2.43;;;7.70;99.90;;;;;;5004062;28;38641;-77
2023/12/30 05:58:20;;;;;;;14.63;1.77;;;7.80;99.90;;;;;;4993965;28;36143;-78
2023/12/30 06:00:52;;;;;;;11.40;1.50;;;7.90;99.90;;;;;;5000003;28;39014;-78
2023/12/30 06:03:18;;;;;;;14.65;1.48;;;8.00;99.90;;;;;;4988069;28;38115;-78
2023/12/30 06:05:44;;;;;;;14.50;1.87;;;8.10;99.90;;;;;;4999308;28;37320;-78
2023/12/30 06:08:10;;;;;;;13.20;1.90;;;8.10;99.90;;;;;;5001755;28;38314;-78
2023/12/30 06:10:36;;;;;;;9.30;1.40;;;8.00;99.90;;;;;;5004208;28;38475;-78
2023/12/30 06:13:03;;;;;;;12.27;1.73;;;8.00;99.90;;;;;;5020628;28;39008;-78
2023/12/30 06:15:29;;;;;;;10.53;1.73;;;8.00;99.90;;;;;;5003102;28;38487;-79
2023/12/30 06:17:55;;;;;;;8.50;1.63;;;8.00;99.90;;;;;;5003081;28;37870;-78
2023/12/30 06:20:23;;;;;;;15.33;1.97;;;8.00;99.90;;;;;;5002281;28;40233;-78
2023/12/30 06:22:52;;;;;;;9.10;1.23;;;8.00;99.90;;;;;;5003776;28;38901;-80
2023/12/30 06:25:18;;;;;;;9.20;1.63;;;8.00;99.90;;;;;;5002092;28;39472;-78
2023/12/30 06:27:44;;;;;;;13.23;1.80;;;8.00;99.90;;;;;;5002021;28;37413;-79
2023/12/30 06:30:11;;;;;;;7.10;1.10;;;8.00;99.90;;;;;;4991925;28;40225;-77
2023/12/30 06:32:37;;;;;;;11.00;2.00;;;8.00;99.90;;;;;;5016845;28;40015;-78
2023/12/30 06:35:03;;;;;;;11.00;1.80;;;8.00;99.90;;;;;;5006981;28;38515;-77
2023/12/30 06:37:31;;;;;;;12.40;1.13;;;8.00;99.90;;;;;;5003422;28;48202;-80
2023/12/30 06:39:57;;;;;;;7.73;1.80;;;7.90;99.90;;;;;;5012892;28;37906;-77
2023/12/30 06:42:26;;;;;;;12.30;1.73;;;7.90;99.90;;;;;;4998215;28;39056;-77
2023/12/30 06:44:52;;;;;;;10.10;1.90;;;7.90;99.90;;;;;;4989054;28;38289;-78
2023/12/30 06:47:19;;;;;;;12.03;2.17;;;7.90;99.90;;;;;;4994172;28;37419;-78
2023/12/30 06:49:46;;;;;;;11.60;1.53;;;7.80;99.90;;;;;;5001272;28;38687;-78
2023/12/30 06:52:12;;;;;;;10.03;1.70;;;7.80;99.90;;;;;;4999876;28;38823;-79
2023/12/30 06:54:40;;;;;;;13.23;1.47;;;7.70;99.90;;;;;;5005010;28;38531;-78
2023/12/30 06:57:06;;;;;;;12.50;1.83;;;7.60;99.90;;;;;;4999842;28;36845;-78
2023/12/30 06:59:34;;;;;;;9.70;1.53;;;7.50;99.90;;;;;;5018999;28;37536;-78
2023/12/30 07:02:01;;;;;;;13.80;2.20;;;7.40;99.90;;;;;;4999098;28;39481;-78
2023/12/30 07:04:27;;;;;;;17.13;3.57;;;7.40;99.90;;;;;;4997366;28;49020;-78
2023/12/30 07:06:53;;;;;;;18.37;2.47;;;7.30;99.90;;;;;;5001560;28;39082;-79
2023/12/30 07:09:20;;;;;;;14.77;2.03;;;7.30;99.90;;;;;;4998959;28;39295;-79
2023/12/30 07:11:46;;;;;;;21.77;2.87;;;7.20;99.90;;;;;;5003932;28;38198;-78
2023/12/30 07:14:13;;;;;;;14.07;2.30;;;7.20;99.90;;;;;;4998991;28;39811;-79
2023/12/30 07:16:39;;;;;;;19.20;2.80;;;7.20;99.90;;;;;;5011822;28;35813;-79
2023/12/30 07:19:05;;;;;;;16.77;2.30;;;7.20;99.90;;;;;;5002166;28;37843;-79
2023/12/30 07:21:31;;;;;;;17.53;3.10;;;7.10;99.90;;;;;;5005425;28;39092;-77
2023/12/30 07:23:57;;;;;;;18.50;2.87;;;7.10;99.90;;;;;;5003079;28;38252;-78
2023/12/30 07:26:23;;;;;;;18.03;3.33;;;7.10;99.90;;;;;;5000741;28;39094;-78
2023/12/30 07:28:50;;;;;;;28.57;3.03;;;7.10;99.90;;;;;;5002649;28;38879;-79
2023/12/30 07:31:16;;;;;;;18.30;2.53;;;7.10;99.90;;;;;;5003842;28;37111;-79
2023/12/30 07:33:42;;;;;;;14.20;3.17;;;7.00;99.90;;;;;;5004378;28;36894;-77
2023/12/30 07:36:08;;;;;;;18.33;3.37;;;7.00;99.90;;;;;;4998803;28;36224;-77
2023/12/30 07:38:35;;;;;;;12.90;3.37;;;7.00;99.90;;;;;;5000394;28;38747;-79
2023/12/30 07:41:01;;;;;;;15.73;2.87;;;7.00;99.90;;;;;;5002415;28;40084;-78
2023/12/30 07:43:28;;;;;;;20.93;2.80;;;7.10;99.90;;;;;;5001015;28;49256;-78
2023/12/30 07:45:55;;;;;;;21.93;2.37;;;7.10;99.90;;;;;;5001260;28;36052;-79
2023/12/30 07:48:21;;;;;;;12.13;1.97;;;7.20;99.90;;;;;;5010176;28;38605;-78
2023/12/30 07:50:47;;;;;;;14.53;1.87;;;7.20;99.90;;;;;;5002359;28;39606;-80
2023/12/30 07:53:14;;;;;;;18.23;2.07;;;7.20;99.90;;;;;;5004519;28;38245;-78
2023/12/30 07:55:41;;;;;;;15.00;2.33;;;7.30;99.90;;;;;;5000539;28;36922;-78
2023/12/30 07:58:07;;;;;;;17.10;2.13;;;7.20;99.90;;;;;;5011357;28;39547;-77
2023/12/30 08:00:33;;;;;;;21.20;2.27;;;7.20;99.90;;;;;;4997122;28;39991;-78
2023/12/30 08:03:03;;;;;;;14.37;2.20;;;7.20;99.90;;;;;;4998978;28;37010;-79
2023/12/30 08:05:29;;;;;;;21.07;2.30;;;7.20;99.90;;;;;;4998980;28;47733;-79
2023/12/30 08:07:55;;;;;;;12.20;2.03;;;7.20;99.90;;;;;;5002379;28;40472;-78
2023/12/30 08:10:23;;;;;;;13.17;2.50;;;7.10;99.90;;;;;;4992591;28;37633;-79
2023/12/30 08:12:50;;;;;;;14.90;2.43;;;7.10;99.90;;;;;;5000662;28;38053;-78
2023/12/30 08:15:17;;;;;;;13.67;1.97;;;7.10;99.90;;;;;;5006790;28;36568;-78
2023/12/30 08:17:44;;;;;;;15.60;3.17;;;7.10;99.90;;;;;;5008686;28;38169;-79
2023/12/30 08:20:10;;;;;;;22.67;2.80;;;7.10;99.90;;;;;;4992782;28;37511;-79
2023/12/30 08:22:37;;;;;;;13.50;2.30;;;7.10;99.90;;;;;;5012301;28;38687;-79
2023/12/30 08:25:05;;;;;;;14.80;3.00;;;7.10;99.90;;;;;;5010570;28;37969;-78
2023/12/30 08:27:31;;;;;;;17.47;3.07;;;7.10;99.90;;;;;;5005435;28;49785;-79
2023/12/30 08:29:57;;;;;;;21.07;2.73;;;7.10;99.90;;;;;;4998139;28;39130;-78
2023/12/30 08:32:23;;;;;;;16.47;2.47;;;7.20;99.90;;;;;;4997099;28;37819;-79
2023/12/30 08:34:50;;;;;;;19.07;2.70;;;7.30;99.90;;;;;;4994840;28;37392;-77
2023/12/30 08:37:17;;;;;;;15.37;2.60;;;7.40;99.90;;;;;;5011858;28;39081;-80
2023/12/30 08:39:45;;;;;;;20.13;2.40;;;7.50;99.90;;;;;;5008985;28;38322;-80
2023/12/30 08:42:12;;;;;;;16.77;2.83;;;7.50;99.90;;;;;;5009017;28;37152;-78
2023/12/30 08:44:43;;;;;;;23.40;3.30;;;7.60;99.90;;;;;;5009046;28;37943;-78
2023/12/30 08:47:13;;;;;;;15.50;2.33;;;7.60;99.90;;;;;;5008046;28;38729;-77
2023/12/30 08:49:39;;;;;;;22.00;2.47;;;7.70;99.90;;;;;;5004451;28;37586;-79
2023/12/30 08:52:05;;;;;;;20.93;2.23;;;7.70;99.90;;;;;;5004647;28;37467;-79
2023/12/30 08:54:32;;;;;;;13.63;2.30;;;7.80;99.90;;;;;;5001628;28;36133;-78
2023/12/30 08:56:58;;;;;;;13.87;2.83;;;7.80;99.90;;;;;;5015436;28;39205;-79
2023/12/30 08:59:25;;;;;;;15.50;1.93;;;7.90;99.90;;;;;;5002459;28;39093;-78
2023/12/30 09:01:51;;;;;;;18.87;2.40;;;7.90;99.90;;;;;;5002970;28;37522;-78
2023/12/30 09:04:18;;;;;;;13.20;2.27;;;7.90;99.90;;;;;;5005826;28;36513;-78
2023/12/30 09:06:45;;;;;;;21.60;3.10;;;7.90;99.90;;;;;;5004723;28;39463;-78
2023/12/30 09:09:12;;;;;;;14.93;2.30;;;7.90;99.90;;;;;;5002344;28;36901;-79
2023/12/30 09:11:38;;;;;;;16.77;2.13;;;7.90;99.90;;;;;;5003099;28;37335;-79
2023/12/30 09:14:05;;;;;;;14.07;2.67;;;7.90;99.90;;;;;;5013120;28;37676;-79
2023/12/30 09:16:32;;;;;;;18.03;2.40;;;7.90;99.90;;;;;;5004937;28;38054;-80
2023/12/30 09:19:01;;;;;;;13.93;2.80;;;7.90;99.90;;;;;;5009031;28;37611;-79
2023/12/30 09:21:29;;;;;;;12.87;2.20;;;8.00;99.90;;;;;;5006092;28;49309;-80
2023/12/30 09:24:01;;;;;;;20.93;3.20;;;8.00;99.90;;;;;;5010228;28;37802;-79
2023/12/30 09:26:27;;;;;;;17.17;2.43;;;8.20;99.90;;;;;;5020852;28;38037;-79
2023/12/30 09:28:53;;;;;;;23.77;3.33;;;8.20;99.90;;;;;;5006921;28;40288;-77
2023/12/30 09:31:20;;;;;;;19.73;2.73;;;8.30;99.90;;;;;;5013253;28;38705;-80
2023/12/30 09:33:52;;;;;;;14.43;2.57;;;8.40;99.90;;;;;;5009692;28;37385;-80
2023/12/30 09:36:18;;;;;;;19.65;2.30;;;8.50;99.90;;;;;;5022896;28;37975;-81
2023/12/30 09:38:45;;;;;;;15.97;3.10;;;8.50;99.90;;;;;;5010475;28;39675;-80
2023/12/30 09:41:12;;;;;;;15.20;2.63;;;8.60;99.90;;;;;;5009277;28;39223;-81
2023/12/30 09:43:43;;;;;;;18.53;2.70;;;8.60;99.90;;;;;;5012710;28;36151;-80
2023/12/30 09:46:10;;;;;;;20.63;3.17;;;8.60;99.90;;;;;;5003170;28;38906;-80
2023/12/30 09:48:39;;;;;;;14.30;2.70;;;8.70;99.90;;;;;;5013984;28;37429;-80
2023/12/30 09:51:05;;;;;;;14.63;2.40;;;8.70;99.90;;;;;;5015025;28;37242;-80
2023/12/30 09:53:31;;;;;;;13.87;2.77;;;8.80;99.90;;;;;;5013180;28;37377;-80
2023/12/30 09:55:58;;;;;;;14.27;2.40;;;8.80;99.90;;;;;;5010898;28;39118;-80
2023/12/30 09:58:25;;;;;;;13.50;2.37;;;8.90;99.90;;;;;;5022892;28;37679;-81
2023/12/30 10:00:51;;;;;;;12.17;2.53;;;9.00;99.90;;;;;;5010533;28;37446;-80
2023/12/30 10:03:25;;;;;;;17.93;3.20;;;9.00;99.90;;;;;;5007686;28;37226;-82
2023/12/30 10:05:54;;;;;;;18.53;3.30;;;9.00;99.90;;;;;;5009660;28;37997;-79
2023/12/30 10:08:30;;;;;;;15.33;2.63;;;9.10;99.90;;;;;;5012622;28;38304;-80
2023/12/30 10:10:57;;;;;;;16.90;2.77;;;9.20;99.90;;;;;;5014626;28;38372;-80
2023/12/30 10:13:27;;;;;;;18.67;2.90;;;9.20;99.90;;;;;;5012776;28;38617;-80
2023/12/30 10:15:57;;;;;;;12.53;2.70;;;9.20;99.90;;;;;;5013824;28;38544;-79
2023/12/30 10:18:24;;;;;;;16.43;2.47;;;9.30;99.90;;;;;;5009895;28;39907;-78
2023/12/30 10:20:52;;;;;;;18.33;3.27;;;9.30;99.90;;;;;;5007737;28;37761;-80
2023/12/30 10:26:08;;;;;;;17.20;2.80;;;9.30;99.90;;;;;;5098274;23;20814;-79
2023/12/30 10:28:35;;;;;;;28.63;3.73;;;9.30;99.90;;;;;;4984170;28;48668;-79
2023/12/30 10:31:08;;;;;;;20.77;3.40;;;9.30;99.90;;;;;;4977076;28;39490;-82
2023/12/30 10:33:42;;;;;;;18.83;3.27;;;9.20;99.90;;;;;;4980059;28;47333;-81
2023/12/30 10:38:55;;;;;;;24.80;5.23;;;9.20;99.90;;;;;;5723012;22;20054;-80
2023/12/30 10:41:26;;;;;;;29.80;3.93;;;9.20;99.90;;;;;;5008631;28;39394;-79
2023/12/30 10:43:56;;;;;;;22.23;4.20;;;9.20;99.90;;;;;;5015349;28;37285;-79
2023/12/30 10:46:32;;;;;;;21.93;4.83;;;9.20;99.90;;;;;;5006302;28;39267;-79
2023/12/30 10:49:18;;;;;;;26.33;4.87;;;9.20;99.90;;;;;;5073382;22;38688;-79
2023/12/30 10:51:47;;;;;;;21.23;4.30;;;9.30;99.90;;;;;;5022719;28;48590;-79
2023/12/30 10:54:28;;;;;;;27.23;5.03;;;9.30;99.90;;;;;;5025595;28;36968;-80
2023/12/30 10:57:27;;;;;;;25.13;5.70;;;9.30;99.90;;;;;;5031204;28;38815;-81
2023/12/30 11:00:08;;;;;;;28.87;6.23;;;9.40;99.90;;;;;;5083818;23;50310;-80
2023/12/30 11:02:44;;;;;;;21.87;5.80;;;9.40;99.90;;;;;;5003336;28;37564;-80
2023/12/30 11:05:27;;;;;;;25.37;6.87;;;9.50;99.90;;;;;;5024786;28;37738;-80
2023/12/30 11:07:57;;;;;;;22.63;7.03;;;9.50;99.90;;;;;;5030599;28;37796;-81
2023/12/30 11:10:33;;;;;;;36.83;7.73;;;9.50;99.90;;;;;;5027039;28;37503;-79
2023/12/30 11:13:06;;;;;;;30.90;7.23;;;9.50;99.90;;;;;;5038558;28;37272;-78
2023/12/30 11:15:51;;;;;;;30.63;7.37;;;9.60;99.90;;;;;;5017790;28;49996;-79
2023/12/30 11:23:39;;;;;;;24.47;7.83;;;9.60;99.90;;;;;;5841467;22;20051;-80
2023/12/30 11:26:39;;;;;;;27.87;9.03;;;9.60;99.90;;;;;;4962649;28;35951;-78
2023/12/30 11:29:20;;;;;;;27.73;7.87;;;9.60;99.90;;;;;;4996391;28;40187;-79
2023/12/30 11:31:48;;;;;;;31.57;8.80;;;9.60;99.90;;;;;;4964598;28;40017;-79
2023/12/30 11:34:20;;;;;;;27.07;9.13;;;9.70;99.90;;;;;;5010180;28;37189;-80
2023/12/30 11:36:52;;;;;;;30.57;9.13;;;9.70;99.90;;;;;;4987651;28;37549;-78
2023/12/30 11:39:56;;;;;;;29.13;8.43;;;9.70;99.90;;;;;;4992759;28;39615;-81
2023/12/30 11:42:38;;;;;;;28.57;8.80;;;9.80;99.90;;;;;;4946957;28;39839;-80
2023/12/30 11:45:15;;;;;;;29.13;8.60;;;9.80;99.90;;;;;;4937702;28;39375;-79
2023/12/30 11:47:50;;;;;;;32.63;9.57;;;10.00;99.90;;;;;;4953316;28;40508;-79
2023/12/30 11:50:29;;;;;;;26.57;8.20;;;9.90;99.90;;;;;;4919690;28;38652;-80
2023/12/30 11:53:18;;;;;;;29.07;8.40;;;9.90;99.90;;;;;;4929104;28;39455;-79
2023/12/30 12:22:15;;;;;;;;;;;;;;;;;;;;;
2023/12/30 12:38:27;;;;;;;17.40;6.50;;;10.00;99.90;;;;;;5430321;22;20051;-82
2023/12/30 12:46:22;;;;;;;19.43;6.07;;;10.00;99.90;;;;;;5401871;22;20035;-79
2023/12/30 12:48:52;;;;;;;;;;;10.00;99.90;;;;;;5018376;28;37596;-79
2023/12/30 12:56:36;;;;;;;29.87;8.20;;;10.20;99.90;;;;;;5647022;23;20046;-80
2023/12/30 12:59:40;;;;;;;29.60;6.45;;;10.20;99.90;;;;;;4998547;28;37672;-81
2023/12/30 13:07:41;;;;;;;22.60;5.47;;;10.30;99.90;;;;;;5320917;22;20054;-82
2023/12/30 13:10:51;;;;;;;24.20;5.47;;;10.40;99.90;;;;;;4984035;28;40433;-80
2023/12/30 13:30:13;;;;;;;21.00;4.77;;;10.10;99.90;;;;;;5102643;23;20076;-80
2023/12/30 13:32:49;;;;;;;19.17;4.97;;;10.10;99.90;;;;;;5017760;28;38388;-81
2023/12/30 13:35:50;;;;;;;20.55;4.75;;;10.10;99.90;;;;;;4995383;28;38015;-80
2023/12/30 13:38:52;;;;;;;18.47;4.50;;;10.10;99.90;;;;;;5008430;28;39202;-79
2023/12/30 13:41:28;;;;;;;16.50;4.47;;;10.10;99.90;;;;;;4960828;28;38513;-80
2023/12/30 13:44:17;;;;;;;18.90;4.70;;;10.10;99.90;;;;;;4984998;28;38087;-80
2023/12/30 13:52:53;;;;;;;;;;;10.10;99.90;;;;;;4994085;28;49577;-80
2023/12/30 13:55:32;;;;;;;19.83;5.13;;;10.10;99.90;;;;;;4999157;28;38303;-78
2023/12/30 14:20:46;;;;;;;14.10;3.63;;;10.40;99.90;;;;;;5102846;23;20100;-80
2023/12/30 14:23:53;;;;;;;12.23;3.97;;;10.40;99.90;;;;;;5001058;28;39561;-80
2023/12/30 14:26:43;;;;;;;21.53;4.07;;;10.40;99.90;;;;;;4952735;28;38328;-79
2023/12/30 14:30:00;;;;;;;17.33;3.80;;;10.40;99.90;;;;;;4950074;28;39580;-80
2023/12/30 14:33:00;;;;;;;18.27;3.73;;;10.30;99.90;;;;;;5001805;28;36529;-81
2023/12/30 15:39:19;;;;;;;12.13;3.47;;;10.40;99.90;;;;;;5137903;23;20065;-81
2023/12/30 15:42:33;;;;;;;13.60;2.70;;;10.50;99.90;;;;;;4961948;28;48520;-80
2023/12/30 15:45:24;;;;;;;10.23;2.53;;;10.50;99.90;;;;;;4999004;28;49920;-80
2023/12/30 16:57:19;;;;;;;5.45;2.08;;;10.70;99.90;;;;;;5566769;22;20089;-80
2023/12/30 17:00:06;;;;;;;7.33;1.73;;;10.70;99.90;;;;;;4955612;28;37777;-80
2023/12/30 17:02:44;;;;;;;7.83;1.70;;;10.60;99.90;;;;;;4961504;28;37809;-79
2023/12/30 17:05:24;;;;;;;8.53;2.20;;;10.60;99.90;;;;;;4969245;28;42590;-80